sensor_id;sensor_type;location;lat;lon;timestamp;pressure;altitude;pressure_sealevel;temperature
20730;BMP280;10526;50.850;12.928;2024-02-23T00:01:01;95206.28;;;11.84
20730;BMP280;10526;50.850;12.928;2024-02-23T00:05:23;95225.88;;;11.81
20730;BMP280;10526;50.850;12.928;2024-02-23T00:09:46;95214.34;;;11.69
20730;BMP280;10526;50.850;12.928;2024-02-23T00:14:08;95235.22;;;11.50
20730;BMP280;10526;50.850;12.928;2024-02-23T00:18:30;95240.28;;;11.28
20730;BMP280;10526;50.850;12.928;2024-02-23T00:22:52;95221.81;;;11.24
20730;BMP280;10526;50.850;12.928;2024-02-23T00:27:15;95217.78;;;11.29
20730;BMP280;10526;50.850;12.928;2024-02-23T00:31:41;95225.78;;;11.29
20730;BMP280;10526;50.850;12.928;2024-02-23T00:36:03;95242.38;;;11.23
20730;BMP280;10526;50.850;12.928;2024-02-23T00:40:25;95241.66;;;11.23
20730;BMP280;10526;50.850;12.928;2024-02-23T00:44:47;95242.59;;;11.20
20730;BMP280;10526;50.850;12.928;2024-02-23T00:49:09;95273.81;;;11.19
20730;BMP280;10526;50.850;12.928;2024-02-23T00:53:31;95283.66;;;11.13
20730;BMP280;10526;50.850;12.928;2024-02-23T00:57:53;95312.22;;;11.13
20730;BMP280;10526;50.850;12.928;2024-02-23T01:02:15;95306.63;;;11.11
20730;BMP280;10526;50.850;12.928;2024-02-23T01:06:37;95317.75;;;11.09
20730;BMP280;10526;50.850;12.928;2024-02-23T01:11:00;95342.53;;;11.01
20730;BMP280;10526;50.850;12.928;2024-02-23T01:15:22;95345.66;;;10.99
20730;BMP280;10526;50.850;12.928;2024-02-23T01:19:44;95353.84;;;10.96
20730;BMP280;10526;50.850;12.928;2024-02-23T01:24:06;95382.44;;;10.86
20730;BMP280;10526;50.850;12.928;2024-02-23T01:28:28;95410.91;;;10.80
20730;BMP280;10526;50.850;12.928;2024-02-23T01:32:50;95403.84;;;10.77
20730;BMP280;10526;50.850;12.928;2024-02-23T01:37:12;95404.34;;;10.66
20730;BMP280;10526;50.850;12.928;2024-02-23T01:41:34;95405.66;;;10.56
20730;BMP280;10526;50.850;12.928;2024-02-23T01:45:56;95398.47;;;10.47
20730;BMP280;10526;50.850;12.928;2024-02-23T01:50:18;95415.97;;;10.39
20730;BMP280;10526;50.850;12.928;2024-02-23T01:54:41;95428.41;;;10.33
20730;BMP280;10526;50.850;12.928;2024-02-23T01:59:03;95439.09;;;10.24
20730;BMP280;10526;50.850;12.928;2024-02-23T02:03:25;95441.84;;;10.15
20730;BMP280;10526;50.850;12.928;2024-02-23T02:07:50;95454.41;;;10.14
20730;BMP280;10526;50.850;12.928;2024-02-23T02:12:25;95454.25;;;10.08
20730;BMP280;10526;50.850;12.928;2024-02-23T02:16:47;95438.63;;;10.01
20730;BMP280;10526;50.850;12.928;2024-02-23T02:21:09;95450.94;;;9.90
20730;BMP280;10526;50.850;12.928;2024-02-23T02:25:31;95491.88;;;9.83
20730;BMP280;10526;50.850;12.928;2024-02-23T02:29:53;95501.59;;;9.86
20730;BMP280;10526;50.850;12.928;2024-02-23T02:34:15;95515.50;;;9.81
20730;BMP280;10526;50.850;12.928;2024-02-23T02:38:38;95509.34;;;9.66
20730;BMP280;10526;50.850;12.928;2024-02-23T02:43:00;95520.28;;;9.59
20730;BMP280;10526;50.850;12.928;2024-02-23T02:47:22;95531.78;;;9.55
20730;BMP280;10526;50.850;12.928;2024-02-23T02:51:44;95530.63;;;9.47
20730;BMP280;10526;50.850;12.928;2024-02-23T02:56:07;95527.41;;;9.34
20730;BMP280;10526;50.850;12.928;2024-02-23T03:00:29;95539.34;;;9.20
20730;BMP280;10526;50.850;12.928;2024-02-23T03:04:52;95530.97;;;9.04
20730;BMP280;10526;50.850;12.928;2024-02-23T03:09:16;95543.47;;;8.94
20730;BMP280;10526;50.850;12.928;2024-02-23T03:13:38;95569.81;;;8.79
20730;BMP280;10526;50.850;12.928;2024-02-23T03:18:00;95574.81;;;8.68
20730;BMP280;10526;50.850;12.928;2024-02-23T03:22:23;95605.09;;;8.48
20730;BMP280;10526;50.850;12.928;2024-02-23T03:26:45;95613.88;;;8.36
20730;BMP280;10526;50.850;12.928;2024-02-23T03:31:07;95604.13;;;8.24
20730;BMP280;10526;50.850;12.928;2024-02-23T03:35:29;95638.81;;;8.17
20730;BMP280;10526;50.850;12.928;2024-02-23T03:39:51;95647.63;;;8.14
20730;BMP280;10526;50.850;12.928;2024-02-23T03:44:12;95673.97;;;8.08
20730;BMP280;10526;50.850;12.928;2024-02-23T03:48:34;95700.72;;;8.01
20730;BMP280;10526;50.850;12.928;2024-02-23T03:52:58;95708.28;;;7.90
20730;BMP280;10526;50.850;12.928;2024-02-23T03:57:20;95716.69;;;7.76
20730;BMP280;10526;50.850;12.928;2024-02-23T04:01:42;95722.63;;;7.67
20730;BMP280;10526;50.850;12.928;2024-02-23T04:06:04;95727.22;;;7.54
20730;BMP280;10526;50.850;12.928;2024-02-23T04:10:26;95727.66;;;7.39
20730;BMP280;10526;50.850;12.928;2024-02-23T04:14:48;95726.16;;;7.26
20730;BMP280;10526;50.850;12.928;2024-02-23T04:19:09;95737.97;;;7.12
20730;BMP280;10526;50.850;12.928;2024-02-23T04:23:34;95728.81;;;7.13
20730;BMP280;10526;50.850;12.928;2024-02-23T04:27:56;95729.38;;;7.08
20730;BMP280;10526;50.850;12.928;2024-02-23T04:32:18;95746.09;;;7.05
20730;BMP280;10526;50.850;12.928;2024-02-23T04:36:39;95743.88;;;7.03
20730;BMP280;10526;50.850;12.928;2024-02-23T04:41:05;95781.22;;;7.05
20730;BMP280;10526;50.850;12.928;2024-02-23T04:45:27;95799.00;;;7.05
20730;BMP280;10526;50.850;12.928;2024-02-23T04:49:49;95819.44;;;7.04
20730;BMP280;10526;50.850;12.928;2024-02-23T04:54:12;95828.94;;;7.02
20730;BMP280;10526;50.850;12.928;2024-02-23T04:58:34;95819.63;;;6.97
20730;BMP280;10526;50.850;12.928;2024-02-23T05:02:56;95797.47;;;6.91
20730;BMP280;10526;50.850;12.928;2024-02-23T05:07:18;95801.09;;;6.84
20730;BMP280;10526;50.850;12.928;2024-02-23T05:11:40;95787.22;;;6.80
20730;BMP280;10526;50.850;12.928;2024-02-23T05:16:02;95785.50;;;6.74
20730;BMP280;10526;50.850;12.928;2024-02-23T05:20:24;95783.69;;;6.71
20730;BMP280;10526;50.850;12.928;2024-02-23T05:24:47;95787.78;;;6.59
20730;BMP280;10526;50.850;12.928;2024-02-23T05:29:09;95797.16;;;6.47
20730;BMP280;10526;50.850;12.928;2024-02-23T05:33:30;95812.22;;;6.34
20730;BMP280;10526;50.850;12.928;2024-02-23T05:37:53;95811.66;;;6.26
20730;BMP280;10526;50.850;12.928;2024-02-23T05:42:15;95835.03;;;6.28
20730;BMP280;10526;50.850;12.928;2024-02-23T05:46:37;95847.00;;;6.32
20730;BMP280;10526;50.850;12.928;2024-02-23T05:50:59;95863.47;;;6.37
20730;BMP280;10526;50.850;12.928;2024-02-23T05:55:21;95857.38;;;6.40
20730;BMP280;10526;50.850;12.928;2024-02-23T05:59:42;95867.94;;;6.40
20730;BMP280;10526;50.850;12.928;2024-02-23T06:04:04;95873.91;;;6.44
20730;BMP280;10526;50.850;12.928;2024-02-23T06:08:27;95885.44;;;6.50
20730;BMP280;10526;50.850;12.928;2024-02-23T06:12:49;95897.09;;;6.52
20730;BMP280;10526;50.850;12.928;2024-02-23T06:17:13;95888.75;;;6.54
20730;BMP280;10526;50.850;12.928;2024-02-23T06:21:35;95893.69;;;6.52
20730;BMP280;10526;50.850;12.928;2024-02-23T06:25:58;95901.25;;;6.53
20730;BMP280;10526;50.850;12.928;2024-02-23T06:30:20;95916.34;;;6.53
20730;BMP280;10526;50.850;12.928;2024-02-23T06:34:42;95914.28;;;6.60
20730;BMP280;10526;50.850;12.928;2024-02-23T06:39:04;95907.25;;;6.70
20730;BMP280;10526;50.850;12.928;2024-02-23T06:43:26;95916.06;;;6.80
20730;BMP280;10526;50.850;12.928;2024-02-23T06:47:48;95915.16;;;6.86
20730;BMP280;10526;50.850;12.928;2024-02-23T06:52:11;95916.06;;;7.09
20730;BMP280;10526;50.850;12.928;2024-02-23T06:56:32;95917.28;;;7.33
20730;BMP280;10526;50.850;12.928;2024-02-23T07:00:55;95941.56;;;7.45
20730;BMP280;10526;50.850;12.928;2024-02-23T07:05:17;95960.34;;;7.50
20730;BMP280;10526;50.850;12.928;2024-02-23T07:09:40;95979.84;;;7.56
20730;BMP280;10526;50.850;12.928;2024-02-23T07:14:02;95985.00;;;7.60
20730;BMP280;10526;50.850;12.928;2024-02-23T07:18:24;95997.13;;;7.61
20730;BMP280;10526;50.850;12.928;2024-02-23T07:22:46;96008.44;;;7.61
20730;BMP280;10526;50.850;12.928;2024-02-23T07:27:08;96009.84;;;7.66
20730;BMP280;10526;50.850;12.928;2024-02-23T07:31:30;96006.84;;;7.64
20730;BMP280;10526;50.850;12.928;2024-02-23T07:35:52;96020.63;;;7.59
20730;BMP280;10526;50.850;12.928;2024-02-23T07:40:14;96042.00;;;7.52
20730;BMP280;10526;50.850;12.928;2024-02-23T07:44:41;96023.25;;;7.46
20730;BMP280;10526;50.850;12.928;2024-02-23T07:49:05;96041.94;;;7.39
20730;BMP280;10526;50.850;12.928;2024-02-23T07:53:28;96037.81;;;7.38
20730;BMP280;10526;50.850;12.928;2024-02-23T07:57:50;96040.84;;;7.36
20730;BMP280;10526;50.850;12.928;2024-02-23T08:02:12;96051.16;;;7.34
20730;BMP280;10526;50.850;12.928;2024-02-23T08:06:34;96062.38;;;7.38
20730;BMP280;10526;50.850;12.928;2024-02-23T08:10:56;96064.88;;;7.46
20730;BMP280;10526;50.850;12.928;2024-02-23T08:15:18;96065.00;;;7.55
20730;BMP280;10526;50.850;12.928;2024-02-23T08:19:40;96056.78;;;7.65
20730;BMP280;10526;50.850;12.928;2024-02-23T08:24:02;96045.63;;;8.00
20730;BMP280;10526;50.850;12.928;2024-02-23T08:28:24;96046.81;;;8.50
20730;BMP280;10526;50.850;12.928;2024-02-23T08:32:46;96040.59;;;9.25
20730;BMP280;10526;50.850;12.928;2024-02-23T08:37:09;96058.63;;;9.74
20730;BMP280;10526;50.850;12.928;2024-02-23T08:41:31;96050.50;;;10.40
20730;BMP280;10526;50.850;12.928;2024-02-23T08:45:53;96048.44;;;11.12
20730;BMP280;10526;50.850;12.928;2024-02-23T08:50:15;96072.22;;;11.70
20730;BMP280;10526;50.850;12.928;2024-02-23T08:54:37;96094.38;;;12.37
20730;BMP280;10526;50.850;12.928;2024-02-23T08:59:01;96094.88;;;11.75
20730;BMP280;10526;50.850;12.928;2024-02-23T09:03:23;96100.66;;;11.64
20730;BMP280;10526;50.850;12.928;2024-02-23T09:07:45;96120.97;;;11.34
20730;BMP280;10526;50.850;12.928;2024-02-23T09:12:07;96109.53;;;11.06
20730;BMP280;10526;50.850;12.928;2024-02-23T09:16:32;96111.38;;;10.69
20730;BMP280;10526;50.850;12.928;2024-02-23T09:20:55;96121.22;;;9.97
20730;BMP280;10526;50.850;12.928;2024-02-23T09:25:18;96108.06;;;10.16
20730;BMP280;10526;50.850;12.928;2024-02-23T09:29:41;96099.72;;;10.85
20730;BMP280;10526;50.850;12.928;2024-02-23T09:34:06;96084.91;;;10.56
20730;BMP280;10526;50.850;12.928;2024-02-23T09:38:28;96096.63;;;10.77
20730;BMP280;10526;50.850;12.928;2024-02-23T09:42:56;96107.72;;;11.86
20730;BMP280;10526;50.850;12.928;2024-02-23T09:47:18;96109.03;;;12.99
20730;BMP280;10526;50.850;12.928;2024-02-23T09:51:41;96128.16;;;13.89
20730;BMP280;10526;50.850;12.928;2024-02-23T09:56:04;96133.13;;;13.67
20730;BMP280;10526;50.850;12.928;2024-02-23T10:00:27;96130.28;;;12.93
20730;BMP280;10526;50.850;12.928;2024-02-23T10:04:51;96132.88;;;13.02
20730;BMP280;10526;50.850;12.928;2024-02-23T10:09:15;96136.56;;;12.81
20730;BMP280;10526;50.850;12.928;2024-02-23T10:13:37;96140.28;;;13.46
20730;BMP280;10526;50.850;12.928;2024-02-23T10:17:59;96137.16;;;12.85
20730;BMP280;10526;50.850;12.928;2024-02-23T10:22:22;96144.84;;;13.31
20730;BMP280;10526;50.850;12.928;2024-02-23T10:26:47;96147.88;;;12.76
20730;BMP280;10526;50.850;12.928;2024-02-23T10:31:10;96142.63;;;12.57
20730;BMP280;10526;50.850;12.928;2024-02-23T10:35:36;96154.56;;;11.87
20730;BMP280;10526;50.850;12.928;2024-02-23T10:40:00;96154.13;;;11.42
20730;BMP280;10526;50.850;12.928;2024-02-23T10:44:24;96166.03;;;10.92
20730;BMP280;10526;50.850;12.928;2024-02-23T10:48:46;96180.88;;;11.11
20730;BMP280;10526;50.850;12.928;2024-02-23T10:53:10;96177.81;;;10.82
20730;BMP280;10526;50.850;12.928;2024-02-23T10:57:35;96196.03;;;10.21
20730;BMP280;10526;50.850;12.928;2024-02-23T11:01:59;96184.56;;;10.11
20730;BMP280;10526;50.850;12.928;2024-02-23T11:06:28;96172.63;;;10.38
20730;BMP280;10526;50.850;12.928;2024-02-23T11:10:51;96181.28;;;10.07
20730;BMP280;10526;50.850;12.928;2024-02-23T11:15:27;96172.75;;;10.13
20730;BMP280;10526;50.850;12.928;2024-02-23T11:19:50;96194.16;;;10.40
20730;BMP280;10526;50.850;12.928;2024-02-23T11:24:16;96183.63;;;10.05
20730;BMP280;10526;50.850;12.928;2024-02-23T11:28:52;96163.25;;;9.46
20730;BMP280;10526;50.850;12.928;2024-02-23T11:33:29;96171.63;;;9.44
20730;BMP280;10526;50.850;12.928;2024-02-23T11:37:56;96170.31;;;9.62
20730;BMP280;10526;50.850;12.928;2024-02-23T11:42:27;96174.00;;;9.77
20730;BMP280;10526;50.850;12.928;2024-02-23T11:46:49;96163.59;;;9.70
20730;BMP280;10526;50.850;12.928;2024-02-23T11:51:14;96158.72;;;9.55
20730;BMP280;10526;50.850;12.928;2024-02-23T11:55:37;96160.25;;;9.56
20730;BMP280;10526;50.850;12.928;2024-02-23T12:00:02;96147.88;;;9.41
20730;BMP280;10526;50.850;12.928;2024-02-23T12:04:27;96148.19;;;9.30
20730;BMP280;10526;50.850;12.928;2024-02-23T12:08:50;96159.97;;;9.42
20730;BMP280;10526;50.850;12.928;2024-02-23T12:13:13;96163.63;;;9.57
20730;BMP280;10526;50.850;12.928;2024-02-23T12:17:47;96160.63;;;9.20
20730;BMP280;10526;50.850;12.928;2024-02-23T12:22:10;96148.53;;;9.19
20730;BMP280;10526;50.850;12.928;2024-02-23T12:26:35;96150.00;;;9.33
20730;BMP280;10526;50.850;12.928;2024-02-23T12:31:02;96146.88;;;9.47
20730;BMP280;10526;50.850;12.928;2024-02-23T12:35:24;96154.06;;;9.60
20730;BMP280;10526;50.850;12.928;2024-02-23T12:39:46;96143.56;;;9.56
20730;BMP280;10526;50.850;12.928;2024-02-23T12:44:08;96154.69;;;9.64
20730;BMP280;10526;50.850;12.928;2024-02-23T12:48:30;96158.09;;;9.64
20730;BMP280;10526;50.850;12.928;2024-02-23T12:52:52;96164.69;;;9.60
20730;BMP280;10526;50.850;12.928;2024-02-23T12:57:14;96165.78;;;9.49
20730;BMP280;10526;50.850;12.928;2024-02-23T13:01:37;96165.91;;;9.46
20730;BMP280;10526;50.850;12.928;2024-02-23T13:06:05;96156.75;;;9.47
20730;BMP280;10526;50.850;12.928;2024-02-23T13:10:28;96169.63;;;9.48
20730;BMP280;10526;50.850;12.928;2024-02-23T13:14:51;96157.31;;;9.42
20730;BMP280;10526;50.850;12.928;2024-02-23T13:19:13;96176.84;;;9.35
20730;BMP280;10526;50.850;12.928;2024-02-23T13:23:35;96177.75;;;9.19
20730;BMP280;10526;50.850;12.928;2024-02-23T13:27:58;96165.88;;;9.11
20730;BMP280;10526;50.850;12.928;2024-02-23T13:32:20;96167.56;;;8.92
20730;BMP280;10526;50.850;12.928;2024-02-23T13:36:43;96175.63;;;8.89
20730;BMP280;10526;50.850;12.928;2024-02-23T13:41:05;96171.72;;;8.93
20730;BMP280;10526;50.850;12.928;2024-02-23T13:45:27;96165.88;;;8.98
20730;BMP280;10526;50.850;12.928;2024-02-23T13:49:49;96173.09;;;8.72
20730;BMP280;10526;50.850;12.928;2024-02-23T13:54:11;96172.75;;;8.58
20730;BMP280;10526;50.850;12.928;2024-02-23T13:58:33;96158.53;;;8.52
20730;BMP280;10526;50.850;12.928;2024-02-23T14:02:56;96162.44;;;8.60
20730;BMP280;10526;50.850;12.928;2024-02-23T14:07:18;96167.53;;;8.67
20730;BMP280;10526;50.850;12.928;2024-02-23T14:11:40;96188.22;;;8.59
20730;BMP280;10526;50.850;12.928;2024-02-23T14:16:02;96173.69;;;8.51
20730;BMP280;10526;50.850;12.928;2024-02-23T14:20:25;96186.00;;;8.58
20730;BMP280;10526;50.850;12.928;2024-02-23T14:24:47;96183.66;;;8.60
20730;BMP280;10526;50.850;12.928;2024-02-23T14:29:09;96176.34;;;8.51
20730;BMP280;10526;50.850;12.928;2024-02-23T14:33:32;96176.88;;;8.33
20730;BMP280;10526;50.850;12.928;2024-02-23T14:37:54;96181.50;;;8.29
20730;BMP280;10526;50.850;12.928;2024-02-23T14:42:16;96178.81;;;8.16
20730;BMP280;10526;50.850;12.928;2024-02-23T14:46:38;96176.03;;;8.07
20730;BMP280;10526;50.850;12.928;2024-02-23T14:51:04;96181.44;;;8.04
20730;BMP280;10526;50.850;12.928;2024-02-23T14:55:26;96168.47;;;8.06
20730;BMP280;10526;50.850;12.928;2024-02-23T14:59:48;96157.13;;;8.05
20730;BMP280;10526;50.850;12.928;2024-02-23T15:04:11;96161.88;;;7.98
20730;BMP280;10526;50.850;12.928;2024-02-23T15:08:35;96168.91;;;7.91
20730;BMP280;10526;50.850;12.928;2024-02-23T15:12:57;96174.34;;;7.84
20730;BMP280;10526;50.850;12.928;2024-02-23T15:17:19;96180.59;;;7.78
20730;BMP280;10526;50.850;12.928;2024-02-23T15:21:41;96191.88;;;7.65
20730;BMP280;10526;50.850;12.928;2024-02-23T15:26:07;96166.38;;;7.55
20730;BMP280;10526;50.850;12.928;2024-02-23T15:30:32;96154.78;;;7.49
20730;BMP280;10526;50.850;12.928;2024-02-23T15:34:56;96139.97;;;7.52
20730;BMP280;10526;50.850;12.928;2024-02-23T15:39:19;96148.66;;;7.52
20730;BMP280;10526;50.850;12.928;2024-02-23T15:43:40;96153.22;;;7.52
20730;BMP280;10526;50.850;12.928;2024-02-23T15:48:03;96155.28;;;7.44
20730;BMP280;10526;50.850;12.928;2024-02-23T15:52:26;96154.41;;;7.34
20730;BMP280;10526;50.850;12.928;2024-02-23T15:56:48;96160.59;;;7.28
20730;BMP280;10526;50.850;12.928;2024-02-23T16:01:10;96183.53;;;7.18
20730;BMP280;10526;50.850;12.928;2024-02-23T16:05:32;96186.72;;;7.09
20730;BMP280;10526;50.850;12.928;2024-02-23T16:09:55;96214.19;;;6.99
20730;BMP280;10526;50.850;12.928;2024-02-23T16:14:18;96246.06;;;6.92
20730;BMP280;10526;50.850;12.928;2024-02-23T16:18:40;96245.47;;;6.84
20730;BMP280;10526;50.850;12.928;2024-02-23T16:23:09;96249.72;;;6.78
20730;BMP280;10526;50.850;12.928;2024-02-23T16:27:35;96251.69;;;6.74
20730;BMP280;10526;50.850;12.928;2024-02-23T16:31:57;96238.97;;;6.69
20730;BMP280;10526;50.850;12.928;2024-02-23T16:36:20;96223.56;;;6.64
20730;BMP280;10526;50.850;12.928;2024-02-23T16:40:42;96206.63;;;6.61
20730;BMP280;10526;50.850;12.928;2024-02-23T16:45:04;96197.28;;;6.57
20730;BMP280;10526;50.850;12.928;2024-02-23T16:49:27;96202.69;;;6.50
20730;BMP280;10526;50.850;12.928;2024-02-23T16:53:49;96188.13;;;6.42
20730;BMP280;10526;50.850;12.928;2024-02-23T16:58:11;96201.47;;;6.34
20730;BMP280;10526;50.850;12.928;2024-02-23T17:02:33;96202.00;;;6.26
20730;BMP280;10526;50.850;12.928;2024-02-23T17:06:56;96203.66;;;6.20
20730;BMP280;10526;50.850;12.928;2024-02-23T17:11:19;96201.53;;;6.11
20730;BMP280;10526;50.850;12.928;2024-02-23T17:15:42;96208.44;;;6.05
20730;BMP280;10526;50.850;12.928;2024-02-23T17:20:04;96214.63;;;5.95
20730;BMP280;10526;50.850;12.928;2024-02-23T17:24:26;96225.25;;;5.91
20730;BMP280;10526;50.850;12.928;2024-02-23T17:28:48;96218.41;;;5.94
20730;BMP280;10526;50.850;12.928;2024-02-23T17:33:13;96219.91;;;5.95
20730;BMP280;10526;50.850;12.928;2024-02-23T17:37:36;96210.16;;;5.92
20730;BMP280;10526;50.850;12.928;2024-02-23T17:41:58;96217.06;;;5.86
20730;BMP280;10526;50.850;12.928;2024-02-23T17:46:20;96215.19;;;5.82
20730;BMP280;10526;50.850;12.928;2024-02-23T17:50:42;96210.38;;;5.77
20730;BMP280;10526;50.850;12.928;2024-02-23T17:55:05;96212.00;;;5.71
20730;BMP280;10526;50.850;12.928;2024-02-23T17:59:27;96215.03;;;5.70
20730;BMP280;10526;50.850;12.928;2024-02-23T18:03:49;96218.06;;;5.68
20730;BMP280;10526;50.850;12.928;2024-02-23T18:08:11;96219.69;;;5.62
20730;BMP280;10526;50.850;12.928;2024-02-23T18:12:34;96216.38;;;5.58
20730;BMP280;10526;50.850;12.928;2024-02-23T18:16:56;96213.41;;;5.52
20730;BMP280;10526;50.850;12.928;2024-02-23T18:21:18;96215.75;;;5.47
20730;BMP280;10526;50.850;12.928;2024-02-23T18:25:40;96220.34;;;5.43
20730;BMP280;10526;50.850;12.928;2024-02-23T18:30:03;96213.22;;;5.40
20730;BMP280;10526;50.850;12.928;2024-02-23T18:34:25;96206.88;;;5.34
20730;BMP280;10526;50.850;12.928;2024-02-23T18:38:47;96195.59;;;5.33
20730;BMP280;10526;50.850;12.928;2024-02-23T18:43:09;96184.69;;;5.31
20730;BMP280;10526;50.850;12.928;2024-02-23T18:47:31;96202.84;;;5.29
20730;BMP280;10526;50.850;12.928;2024-02-23T18:51:53;96197.63;;;5.22
20730;BMP280;10526;50.850;12.928;2024-02-23T18:56:15;96219.94;;;5.17
20730;BMP280;10526;50.850;12.928;2024-02-23T19:00:37;96214.69;;;5.14
20730;BMP280;10526;50.850;12.928;2024-02-23T19:04:59;96221.13;;;5.13
20730;BMP280;10526;50.850;12.928;2024-02-23T19:09:22;96208.63;;;5.17
20730;BMP280;10526;50.850;12.928;2024-02-23T19:13:44;96195.50;;;5.13
20730;BMP280;10526;50.850;12.928;2024-02-23T19:18:06;96190.00;;;5.04
20730;BMP280;10526;50.850;12.928;2024-02-23T19:22:28;96197.19;;;5.00
20730;BMP280;10526;50.850;12.928;2024-02-23T19:26:50;96213.06;;;4.96
20730;BMP280;10526;50.850;12.928;2024-02-23T19:31:12;96227.78;;;4.94
20730;BMP280;10526;50.850;12.928;2024-02-23T19:35:35;96238.38;;;4.90
20730;BMP280;10526;50.850;12.928;2024-02-23T19:39:57;96234.28;;;4.86
20730;BMP280;10526;50.850;12.928;2024-02-23T19:44:19;96226.38;;;4.86
20730;BMP280;10526;50.850;12.928;2024-02-23T19:48:41;96234.63;;;4.88
20730;BMP280;10526;50.850;12.928;2024-02-23T19:53:03;96231.66;;;4.86
20730;BMP280;10526;50.850;12.928;2024-02-23T19:57:25;96223.78;;;4.82
20730;BMP280;10526;50.850;12.928;2024-02-23T20:01:48;96213.66;;;4.77
20730;BMP280;10526;50.850;12.928;2024-02-23T20:06:10;96212.63;;;4.71
20730;BMP280;10526;50.850;12.928;2024-02-23T20:10:35;96198.03;;;4.63
20730;BMP280;10526;50.850;12.928;2024-02-23T20:14:56;96193.94;;;4.58
20730;BMP280;10526;50.850;12.928;2024-02-23T20:19:20;96169.94;;;4.49
20730;BMP280;10526;50.850;12.928;2024-02-23T20:23:42;96162.88;;;4.42
20730;BMP280;10526;50.850;12.928;2024-02-23T20:28:04;96173.09;;;4.37
20730;BMP280;10526;50.850;12.928;2024-02-23T20:32:26;96197.97;;;4.32
20730;BMP280;10526;50.850;12.928;2024-02-23T20:36:51;96198.03;;;4.25
20730;BMP280;10526;50.850;12.928;2024-02-23T20:41:13;96210.91;;;4.19
20730;BMP280;10526;50.850;12.928;2024-02-23T20:45:35;96210.16;;;4.19
20730;BMP280;10526;50.850;12.928;2024-02-23T20:49:57;96204.53;;;4.17
20730;BMP280;10526;50.850;12.928;2024-02-23T20:54:20;96220.75;;;4.15
20730;BMP280;10526;50.850;12.928;2024-02-23T20:58:41;96222.22;;;4.16
20730;BMP280;10526;50.850;12.928;2024-02-23T21:03:04;96224.88;;;4.16
20730;BMP280;10526;50.850;12.928;2024-02-23T21:07:26;96235.72;;;4.18
20730;BMP280;10526;50.850;12.928;2024-02-23T21:11:48;96234.94;;;4.21
20730;BMP280;10526;50.850;12.928;2024-02-23T21:16:10;96242.41;;;4.30
20730;BMP280;10526;50.850;12.928;2024-02-23T21:20:31;96243.84;;;4.38
20730;BMP280;10526;50.850;12.928;2024-02-23T21:24:53;96231.75;;;4.41
20730;BMP280;10526;50.850;12.928;2024-02-23T21:29:15;96220.53;;;4.37
20730;BMP280;10526;50.850;12.928;2024-02-23T21:33:37;96209.66;;;4.31
20730;BMP280;10526;50.850;12.928;2024-02-23T21:38:00;96204.44;;;4.28
20730;BMP280;10526;50.850;12.928;2024-02-23T21:42:22;96202.19;;;4.22
20730;BMP280;10526;50.850;12.928;2024-02-23T21:46:44;96192.13;;;4.17
20730;BMP280;10526;50.850;12.928;2024-02-23T21:51:11;96184.25;;;4.10
20730;BMP280;10526;50.850;12.928;2024-02-23T21:55:34;96196.72;;;4.06
20730;BMP280;10526;50.850;12.928;2024-02-23T21:59:56;96202.00;;;4.03
20730;BMP280;10526;50.850;12.928;2024-02-23T22:04:19;96213.00;;;3.94
20730;BMP280;10526;50.850;12.928;2024-02-23T22:08:41;96201.38;;;3.88
20730;BMP280;10526;50.850;12.928;2024-02-23T22:13:03;96206.31;;;3.86
20730;BMP280;10526;50.850;12.928;2024-02-23T22:17:25;96201.47;;;3.81
20730;BMP280;10526;50.850;12.928;2024-02-23T22:21:48;96204.84;;;3.78
20730;BMP280;10526;50.850;12.928;2024-02-23T22:26:10;96202.56;;;3.80
20730;BMP280;10526;50.850;12.928;2024-02-23T22:30:33;96193.59;;;3.77
20730;BMP280;10526;50.850;12.928;2024-02-23T22:34:54;96188.00;;;3.71
20730;BMP280;10526;50.850;12.928;2024-02-23T22:39:17;96195.19;;;3.64
20730;BMP280;10526;50.850;12.928;2024-02-23T22:43:39;96188.91;;;3.50
20730;BMP280;10526;50.850;12.928;2024-02-23T22:48:02;96199.94;;;3.28
20730;BMP280;10526;50.850;12.928;2024-02-23T22:52:24;96201.91;;;3.09
20730;BMP280;10526;50.850;12.928;2024-02-23T22:56:45;96210.97;;;2.97
20730;BMP280;10526;50.850;12.928;2024-02-23T23:01:08;96220.03;;;2.93
20730;BMP280;10526;50.850;12.928;2024-02-23T23:05:32;96221.56;;;2.83
20730;BMP280;10526;50.850;12.928;2024-02-23T23:09:54;96225.34;;;2.75
20730;BMP280;10526;50.850;12.928;2024-02-23T23:14:16;96231.34;;;2.68
20730;BMP280;10526;50.850;12.928;2024-02-23T23:18:38;96224.25;;;2.65
20730;BMP280;10526;50.850;12.928;2024-02-23T23:23:00;96221.66;;;2.58
20730;BMP280;10526;50.850;12.928;2024-02-23T23:27:22;96219.38;;;2.60
20730;BMP280;10526;50.850;12.928;2024-02-23T23:31:44;96223.88;;;2.63
20730;BMP280;10526;50.850;12.928;2024-02-23T23:36:06;96223.88;;;2.56
20730;BMP280;10526;50.850;12.928;2024-02-23T23:40:28;96220.91;;;2.47
20730;BMP280;10526;50.850;12.928;2024-02-23T23:44:50;96214.91;;;2.46
20730;BMP280;10526;50.850;12.928;2024-02-23T23:49:12;96214.53;;;2.52
20730;BMP280;10526;50.850;12.928;2024-02-23T23:53:34;96202.13;;;2.59
20730;BMP280;10526;50.850;12.928;2024-02-23T23:57:56;96199.13;;;2.57
